createdAt,value
2023-12-03T00:01:54.229Z,-0.22
2023-12-03T00:04:22.319Z,-0.93
2023-12-03T00:06:50.308Z,-0.83
2023-12-03T00:09:18.542Z,-0.54
2023-12-03T00:11:46.570Z,-0.69
2023-12-03T00:14:15.731Z,-0.73
2023-12-03T00:16:43.530Z,-0.77
2023-12-03T00:19:11.428Z,-0.70
2023-12-03T00:21:39.343Z,-0.68
2023-12-03T00:24:07.744Z,-0.62
2023-12-03T00:26:35.613Z,-0.70
2023-12-03T00:29:03.914Z,-0.93
2023-12-03T00:31:34.731Z,-1.14
2023-12-03T00:34:04.143Z,-1.15
2023-12-03T00:36:35.291Z,-1.06
2023-12-03T00:39:04.017Z,-1.11
2023-12-03T00:41:31.830Z,-0.95
2023-12-03T00:43:59.898Z,-1.07
2023-12-03T00:46:27.705Z,-0.78
2023-12-03T00:48:57.003Z,-0.89
2023-12-03T00:51:24.890Z,-0.66
2023-12-03T00:53:52.685Z,-0.77
2023-12-03T00:56:20.511Z,-0.41
2023-12-03T00:58:48.347Z,-0.75
2023-12-03T01:01:16.143Z,-0.11
2023-12-03T01:03:43.982Z,-0.39
2023-12-03T01:06:13.195Z,-0.77
2023-12-03T01:08:41.027Z,-0.54
2023-12-03T01:11:09.253Z,-0.59
2023-12-03T01:13:37.109Z,-0.48
2023-12-03T01:16:05.571Z,-0.43
2023-12-03T01:18:33.485Z,-0.01
2023-12-03T01:21:01.311Z,0.03
2023-12-03T01:23:30.516Z,-0.11
2023-12-03T01:25:58.601Z,0.02
2023-12-03T01:28:26.416Z,0.12
2023-12-03T01:30:54.663Z,-0.02
2023-12-03T01:33:22.610Z,-0.10
2023-12-03T01:35:50.547Z,0.51
2023-12-03T01:38:18.375Z,0.71
2023-12-03T01:40:54.405Z,1.14
2023-12-03T01:43:22.279Z,0.63
2023-12-03T01:45:50.229Z,0.50
2023-12-03T01:48:18.534Z,-0.11
2023-12-03T01:50:46.944Z,0.69
2023-12-03T01:53:18.044Z,0.63
2023-12-03T01:55:45.884Z,0.29
2023-12-03T01:58:15.374Z,0.57
2023-12-03T02:00:43.604Z,1.52
2023-12-03T02:03:17.614Z,0.29
2023-12-03T02:05:50.273Z,1.28
2023-12-03T02:08:18.187Z,1.96
2023-12-03T02:10:46.124Z,1.07
2023-12-03T02:13:15.503Z,1.50
2023-12-03T02:15:43.399Z,1.94
2023-12-03T02:18:11.404Z,1.48
2023-12-03T02:20:39.294Z,1.09
2023-12-03T02:23:08.963Z,2.40
2023-12-03T02:25:36.695Z,1.08
2023-12-03T02:28:04.500Z,0.72
2023-12-03T02:30:32.306Z,1.39
2023-12-03T02:33:00.128Z,2.51
2023-12-03T02:35:28.127Z,2.50
2023-12-03T02:37:55.902Z,1.34
2023-12-03T02:40:25.035Z,-0.02
2023-12-03T02:42:52.778Z,-0.19
2023-12-03T02:45:20.788Z,-0.28
2023-12-03T02:47:48.721Z,-0.24
2023-12-03T02:50:16.737Z,-0.44
2023-12-03T02:52:44.557Z,-1.15
2023-12-03T02:55:12.394Z,-0.84
2023-12-03T02:57:41.661Z,-0.40
2023-12-03T03:00:10.426Z,-0.64
2023-12-03T03:02:38.997Z,-0.97
2023-12-03T03:05:07.864Z,-0.81
2023-12-03T03:07:35.698Z,-0.75
2023-12-03T03:10:03.979Z,-0.65
2023-12-03T03:12:31.842Z,-0.79
2023-12-03T03:15:01.002Z,-0.41
2023-12-03T03:17:28.777Z,-0.81
2023-12-03T03:19:56.712Z,-0.95
2023-12-03T03:22:24.457Z,-0.99
2023-12-03T03:24:53.693Z,-0.92
2023-12-03T03:27:21.594Z,-1.22
2023-12-03T03:29:49.434Z,-1.25
2023-12-03T03:32:18.687Z,-1.01
2023-12-03T03:34:46.629Z,-0.89
2023-12-03T03:37:14.516Z,-0.64
2023-12-03T03:39:42.408Z,-0.69
2023-12-03T03:42:10.275Z,-0.80
2023-12-03T03:44:38.465Z,-0.98
2023-12-03T03:47:06.332Z,-1.04
2023-12-03T03:49:35.562Z,-1.11
2023-12-03T03:52:03.974Z,-0.69
2023-12-03T03:54:31.800Z,-0.43
2023-12-03T03:56:59.725Z,-0.39
2023-12-03T03:59:27.937Z,-0.11
2023-12-03T04:01:55.731Z,-0.64
2023-12-03T04:04:23.536Z,-0.82
2023-12-03T04:06:52.699Z,-0.92
2023-12-03T04:09:20.570Z,-0.93
2023-12-03T04:11:48.972Z,-0.87
2023-12-03T04:14:17.908Z,-0.86
2023-12-03T04:16:46.712Z,-0.82
2023-12-03T04:19:14.706Z,-0.60
2023-12-03T04:21:42.702Z,-0.74
2023-12-03T04:24:11.910Z,-0.15
2023-12-03T04:26:43.205Z,-0.90
2023-12-03T04:29:11.016Z,-1.18
2023-12-03T04:31:38.781Z,-1.22
2023-12-03T04:34:06.792Z,-1.21
2023-12-03T04:36:34.771Z,-1.16
2023-12-03T04:39:02.676Z,-1.24
2023-12-03T04:41:37.138Z,-1.27
2023-12-03T04:44:05.673Z,-1.35
2023-12-03T04:46:33.716Z,-1.40
2023-12-03T04:49:01.618Z,-0.88
2023-12-03T04:51:29.540Z,-0.55
2023-12-03T04:53:57.340Z,-0.09
2023-12-03T04:56:25.093Z,0.08
2023-12-03T04:58:54.428Z,-0.14
2023-12-03T05:01:22.258Z,-0.80
2023-12-03T05:03:50.196Z,-0.62
2023-12-03T05:06:18.125Z,-0.73
2023-12-03T05:08:45.933Z,-0.23
2023-12-03T05:11:13.715Z,0.99
2023-12-03T05:13:41.518Z,1.35
2023-12-03T05:16:11.806Z,1.03
2023-12-03T05:18:39.620Z,1.04
2023-12-03T05:21:09.184Z,0.57
2023-12-03T05:23:37.013Z,0.60
2023-12-03T05:26:04.945Z,0.43
2023-12-03T05:28:32.706Z,0.67
2023-12-03T05:31:00.493Z,0.84
2023-12-03T05:33:29.723Z,0.63
2023-12-03T05:35:57.654Z,0.77
2023-12-03T05:38:25.514Z,0.80
2023-12-03T05:40:53.350Z,0.38
2023-12-03T05:43:21.147Z,0.71
2023-12-03T05:45:49.030Z,0.58
2023-12-03T05:48:17.821Z,0.42
2023-12-03T05:50:47.019Z,0.64
2023-12-03T05:53:14.792Z,0.16
2023-12-03T05:55:42.638Z,0.12
2023-12-03T05:58:10.538Z,0.04
2023-12-03T06:00:38.313Z,0.03
2023-12-03T06:03:06.088Z,0.03
2023-12-03T06:05:34.210Z,0.07
2023-12-03T06:08:03.407Z,0.14
2023-12-03T06:10:32.112Z,0.21
2023-12-03T06:12:59.951Z,0.06
2023-12-03T06:15:27.831Z,0.47
2023-12-03T06:17:55.677Z,0.31
2023-12-03T06:20:23.531Z,0.43
2023-12-03T06:22:51.389Z,0.03
2023-12-03T06:25:20.755Z,0.51
2023-12-03T06:27:48.659Z,0.12
2023-12-03T06:30:18.771Z,0.57
2023-12-03T06:32:46.660Z,0.16
2023-12-03T06:35:15.682Z,-0.05
2023-12-03T06:37:43.506Z,-1.09
2023-12-03T06:40:12.685Z,-1.10
2023-12-03T06:42:41.900Z,-0.94
2023-12-03T06:45:10.634Z,-0.67
2023-12-03T06:47:38.449Z,-1.05
2023-12-03T06:50:07.321Z,-1.90
2023-12-03T06:52:35.135Z,-1.03
2023-12-03T06:55:02.988Z,-1.21
2023-12-03T06:57:30.934Z,-0.55
2023-12-03T07:00:00.322Z,-1.31
2023-12-03T07:02:28.117Z,-1.50
2023-12-03T07:04:55.961Z,-1.34
2023-12-03T07:07:23.833Z,-1.46
2023-12-03T07:09:51.770Z,-2.11
2023-12-03T07:12:19.608Z,-2.54
2023-12-03T07:14:47.416Z,-2.69
2023-12-03T07:17:16.614Z,-2.83
2023-12-03T07:19:45.215Z,-2.61
2023-12-03T07:22:13.623Z,-2.38
2023-12-03T07:24:42.176Z,-2.10
2023-12-03T07:27:09.999Z,-1.86
2023-12-03T07:29:38.199Z,-1.66
2023-12-03T07:32:06.905Z,-0.68
2023-12-03T07:34:36.114Z,-1.18
2023-12-03T07:37:04.675Z,0.02
2023-12-03T07:39:32.599Z,-0.55
2023-12-03T07:42:00.423Z,-1.66
2023-12-03T07:44:28.265Z,-1.60
2023-12-03T07:46:58.894Z,-1.78
2023-12-03T07:49:26.844Z,-1.93
2023-12-03T07:51:56.158Z,-2.28
2023-12-03T07:54:24.056Z,-2.43
2023-12-03T07:56:51.916Z,-1.88
2023-12-03T07:59:19.740Z,-1.49
2023-12-03T08:01:48.560Z,-1.60
2023-12-03T08:04:16.512Z,-1.31
2023-12-03T08:06:44.542Z,-0.44
2023-12-03T08:09:13.944Z,-1.06
2023-12-03T08:11:41.808Z,-1.71
2023-12-03T08:14:09.682Z,-1.53
2023-12-03T08:16:37.461Z,-1.67
2023-12-03T08:19:05.324Z,-0.84
2023-12-03T08:21:35.147Z,-0.67
2023-12-03T08:24:02.990Z,-0.65
2023-12-03T08:26:32.178Z,-0.62
2023-12-03T08:29:00.024Z,0.21
2023-12-03T08:31:28.705Z,1.42
2023-12-03T08:33:56.614Z,2.67
2023-12-03T08:36:24.582Z,3.02
2023-12-03T08:38:52.341Z,3.37
2023-12-03T08:41:20.145Z,3.82
2023-12-03T08:43:49.646Z,4.26
2023-12-03T08:46:17.551Z,4.57
2023-12-03T08:48:46.379Z,4.66
2023-12-03T08:51:14.356Z,1.56
2023-12-03T08:53:42.385Z,-0.54
2023-12-03T08:56:12.936Z,-0.19
2023-12-03T08:58:40.939Z,0.54
2023-12-03T09:01:10.468Z,2.57
2023-12-03T09:03:41.392Z,3.28
2023-12-03T09:06:10.627Z,2.46
2023-12-03T09:08:40.834Z,2.85
2023-12-03T09:11:10.258Z,4.30
2023-12-03T09:13:38.126Z,4.65
2023-12-03T09:16:07.007Z,3.42
2023-12-03T09:18:39.559Z,4.67
2023-12-03T09:21:09.256Z,5.75
2023-12-03T09:23:37.641Z,7.05
2023-12-03T09:26:05.845Z,7.31
2023-12-03T09:28:35.492Z,7.29
2023-12-03T09:31:03.703Z,7.60
2023-12-03T09:33:31.713Z,7.60
2023-12-03T09:36:01.324Z,8.36
2023-12-03T09:38:29.248Z,8.75
2023-12-03T09:41:02.149Z,8.50
2023-12-03T09:43:33.271Z,8.73
2023-12-03T09:46:03.091Z,7.72
2023-12-03T09:48:34.416Z,8.52
2023-12-03T09:51:04.973Z,8.05
2023-12-03T09:53:35.096Z,5.48
2023-12-03T09:56:03.568Z,6.35
2023-12-03T09:58:31.697Z,7.25
2023-12-03T10:01:02.254Z,6.76
2023-12-03T10:03:30.146Z,6.22
2023-12-03T10:05:58.036Z,4.15
2023-12-03T10:08:28.186Z,5.00
2023-12-03T10:11:01.014Z,5.41
2023-12-03T10:13:29.611Z,6.98
2023-12-03T10:15:58.039Z,5.98
2023-12-03T10:18:26.103Z,5.50
2023-12-03T10:21:07.187Z,4.31
2023-12-03T10:23:37.155Z,4.03
2023-12-03T10:26:12.443Z,2.24
2023-12-03T10:28:40.684Z,1.56
2023-12-03T10:31:13.222Z,1.23
2023-12-03T10:33:41.183Z,2.34
2023-12-03T10:36:10.739Z,1.58
2023-12-03T10:38:41.146Z,2.36
2023-12-03T10:41:09.967Z,3.61
2023-12-03T10:43:39.833Z,2.67
2023-12-03T10:46:08.439Z,2.08
2023-12-03T10:48:36.931Z,3.92
2023-12-03T10:51:07.062Z,6.53
2023-12-03T10:53:35.946Z,7.34
2023-12-03T10:56:07.356Z,6.76
2023-12-03T10:58:38.287Z,3.66
2023-12-03T11:01:10.552Z,2.70
2023-12-03T11:03:57.149Z,4.22
2023-12-03T11:06:26.095Z,5.62
2023-12-03T11:08:57.807Z,4.21
2023-12-03T11:11:27.051Z,5.08
2023-12-03T11:13:57.815Z,5.69
2023-12-03T11:16:29.623Z,3.56
2023-12-03T11:19:01.348Z,3.39
2023-12-03T11:21:39.520Z,6.00
2023-12-03T11:24:23.989Z,8.11
2023-12-03T11:26:53.293Z,9.25
2023-12-03T11:29:47.551Z,6.62
2023-12-03T11:32:15.486Z,5.01
2023-12-03T11:34:43.570Z,6.42
2023-12-03T11:37:12.117Z,8.16
2023-12-03T11:39:44.276Z,8.62
2023-12-03T11:42:14.474Z,7.38
2023-12-03T11:44:42.774Z,5.12
2023-12-03T11:47:13.305Z,7.56
2023-12-03T11:49:42.310Z,9.29
2023-12-03T11:52:10.680Z,10.16
2023-12-03T11:54:45.422Z,10.76
2023-12-03T11:57:16.040Z,11.02
2023-12-03T11:59:45.085Z,11.62
2023-12-03T12:02:13.381Z,11.62
2023-12-03T12:04:41.478Z,12.39
2023-12-03T12:07:17.222Z,11.85
2023-12-03T12:09:45.456Z,12.22
2023-12-03T12:12:15.853Z,11.98
2023-12-03T12:14:43.699Z,11.42
2023-12-03T12:17:11.705Z,11.06
2023-12-03T12:19:46.852Z,10.36
2023-12-03T12:22:14.894Z,9.53
2023-12-03T12:24:42.868Z,9.42
2023-12-03T12:27:10.620Z,9.88
2023-12-03T12:29:41.950Z,10.39
2023-12-03T12:32:09.877Z,10.48
2023-12-03T12:34:37.858Z,10.42
2023-12-03T12:37:06.895Z,10.33
2023-12-03T12:39:37.795Z,10.55
2023-12-03T12:42:06.546Z,10.28
2023-12-03T12:44:46.848Z,9.57
2023-12-03T12:47:18.418Z,9.00
2023-12-03T12:49:53.194Z,9.48
2023-12-03T12:52:23.074Z,10.07
2023-12-03T12:54:51.872Z,10.41
2023-12-03T12:57:21.305Z,10.51
2023-12-03T12:59:53.509Z,10.74
2023-12-03T13:02:23.430Z,9.84
2023-12-03T13:04:52.166Z,9.96
2023-12-03T13:07:19.948Z,9.51
2023-12-03T13:09:49.129Z,9.78
2023-12-03T13:12:17.445Z,10.23
2023-12-03T13:14:45.349Z,10.39
2023-12-03T13:17:14.577Z,10.20
2023-12-03T13:19:42.460Z,9.04
2023-12-03T13:22:09.364Z,9.76
2023-12-03T13:24:37.366Z,10.29
2023-12-03T13:27:06.021Z,10.80
2023-12-03T13:29:33.826Z,11.26
2023-12-03T13:32:01.664Z,11.86
2023-12-03T13:34:31.624Z,13.52
2023-12-03T13:36:59.650Z,13.76
2023-12-03T13:39:27.566Z,13.85
2023-12-03T13:41:55.365Z,14.44
2023-12-03T13:44:23.221Z,14.13
2023-12-03T13:46:57.523Z,13.94
2023-12-03T13:49:25.749Z,14.33
2023-12-03T13:51:56.029Z,13.67
2023-12-03T13:54:24.031Z,14.32
2023-12-03T13:56:52.460Z,13.11
2023-12-03T13:59:20.465Z,12.65
2023-12-03T14:01:48.394Z,13.44
2023-12-03T14:04:16.378Z,12.84
2023-12-03T14:06:44.269Z,12.64
2023-12-03T14:09:16.234Z,13.92
2023-12-03T14:11:44.367Z,12.21
2023-12-03T14:14:12.708Z,11.10
2023-12-03T14:16:40.516Z,9.86
2023-12-03T14:19:11.867Z,8.42
2023-12-03T14:21:42.756Z,8.25
2023-12-03T14:24:11.640Z,8.70
2023-12-03T14:26:42.718Z,9.84
2023-12-03T14:29:10.819Z,10.63
2023-12-03T14:31:39.062Z,9.74
2023-12-03T14:34:07.329Z,9.81
2023-12-03T14:36:35.444Z,8.95
2023-12-03T14:39:03.758Z,9.36
2023-12-03T14:41:31.555Z,8.19
2023-12-03T14:44:01.068Z,6.56
2023-12-03T14:46:29.071Z,6.13
2023-12-03T14:48:57.367Z,5.75
2023-12-03T14:51:26.603Z,5.32
2023-12-03T14:53:54.609Z,5.39
2023-12-03T14:56:23.334Z,5.15
2023-12-03T14:58:51.712Z,5.14
2023-12-03T15:01:23.673Z,4.95
2023-12-03T15:03:52.102Z,4.11
2023-12-03T15:06:20.112Z,4.43
2023-12-03T15:08:48.548Z,4.37
2023-12-03T15:11:16.608Z,4.30
2023-12-03T15:13:45.990Z,4.73
2023-12-03T15:16:14.248Z,4.60
2023-12-03T15:18:43.937Z,4.45
2023-12-03T15:21:12.196Z,4.69
2023-12-03T15:23:41.180Z,4.65
2023-12-03T15:26:11.317Z,4.03
2023-12-03T15:28:39.561Z,3.49
2023-12-03T15:31:08.439Z,3.03
2023-12-03T15:33:37.179Z,2.75
2023-12-03T15:36:07.896Z,2.68
2023-12-03T15:38:35.840Z,2.66
2023-12-03T15:41:03.772Z,2.63
2023-12-03T15:43:37.366Z,2.57
2023-12-03T15:46:09.604Z,2.49
2023-12-03T15:48:37.794Z,2.76
2023-12-03T15:51:08.265Z,2.71
2023-12-03T15:53:36.323Z,2.66
2023-12-03T15:56:04.765Z,2.67
2023-12-03T15:58:32.651Z,2.60
2023-12-03T16:01:00.889Z,2.38
2023-12-03T16:03:28.839Z,2.19
2023-12-03T16:05:57.604Z,2.62
2023-12-03T16:08:26.764Z,2.28
2023-12-03T16:10:55.418Z,2.61
2023-12-03T16:13:23.166Z,2.73
2023-12-03T16:15:50.983Z,2.73
2023-12-03T16:18:19.105Z,2.65
2023-12-03T16:20:47.046Z,2.84
2023-12-03T16:23:15.039Z,2.42
2023-12-03T16:25:44.190Z,2.79
2023-12-03T16:28:12.042Z,2.68
2023-12-03T16:30:40.257Z,2.52
2023-12-03T16:33:09.699Z,2.81
2023-12-03T16:35:37.733Z,2.76
2023-12-03T16:38:05.860Z,2.68
2023-12-03T16:40:34.204Z,2.19
2023-12-03T16:43:04.537Z,2.44
2023-12-03T16:45:32.519Z,2.07
2023-12-03T16:48:00.816Z,2.35
2023-12-03T16:50:28.661Z,2.53
2023-12-03T16:52:59.764Z,2.13
2023-12-03T16:55:27.991Z,2.08
2023-12-03T16:57:55.909Z,2.18
2023-12-03T17:00:25.209Z,2.20
2023-12-03T17:02:53.182Z,2.22
2023-12-03T17:05:21.064Z,2.19
2023-12-03T17:07:49.012Z,2.17
2023-12-03T17:10:19.173Z,2.16
2023-12-03T17:12:55.191Z,2.21
2023-12-03T17:15:31.531Z,2.64
2023-12-03T17:18:01.155Z,2.48
2023-12-03T17:20:29.500Z,2.39
2023-12-03T17:22:58.753Z,2.45
2023-12-03T17:25:26.678Z,2.29
2023-12-03T17:27:55.558Z,2.48
2023-12-03T17:30:23.670Z,2.73
2023-12-03T17:32:52.982Z,2.20
2023-12-03T17:35:20.895Z,2.42
2023-12-03T17:37:48.880Z,2.16
2023-12-03T17:40:17.295Z,2.03
2023-12-03T17:42:45.918Z,1.69
2023-12-03T17:45:14.532Z,1.61
2023-12-03T17:47:43.064Z,2.03
2023-12-03T17:50:12.526Z,2.08
2023-12-03T17:52:41.038Z,2.41
2023-12-03T17:55:09.676Z,2.47
2023-12-03T17:57:37.767Z,2.37
2023-12-03T18:00:10.071Z,2.20
2023-12-03T18:02:43.166Z,1.91
2023-12-03T18:05:14.722Z,1.94
2023-12-03T18:07:45.345Z,1.70
2023-12-03T18:10:14.080Z,1.65
2023-12-03T18:12:41.938Z,1.81
2023-12-03T18:15:10.724Z,1.57
2023-12-03T18:17:40.711Z,1.68
2023-12-03T18:20:10.095Z,1.40
2023-12-03T18:22:39.503Z,1.51
2023-12-03T18:25:07.826Z,1.60
2023-12-03T18:27:35.635Z,1.77
2023-12-03T18:30:03.733Z,1.85
2023-12-03T18:32:31.703Z,2.00
2023-12-03T18:34:59.706Z,1.95
2023-12-03T18:37:27.579Z,2.00
2023-12-03T18:39:56.998Z,1.96
2023-12-03T18:42:24.945Z,1.84
2023-12-03T18:44:52.778Z,1.91
2023-12-03T18:47:20.625Z,1.88
2023-12-03T18:49:48.512Z,2.14
2023-12-03T18:52:16.751Z,1.77
2023-12-03T18:54:44.836Z,1.77
2023-12-03T18:57:17.028Z,1.67
2023-12-03T18:59:46.396Z,1.74
2023-12-03T19:02:14.559Z,1.66
2023-12-03T19:04:42.476Z,1.78
2023-12-03T19:07:10.337Z,1.54
2023-12-03T19:09:38.216Z,2.10
2023-12-03T19:12:07.823Z,2.13
2023-12-03T19:14:37.159Z,1.79
2023-12-03T19:17:05.530Z,1.78
2023-12-03T19:19:33.400Z,1.57
2023-12-03T19:22:02.036Z,1.67
2023-12-03T19:24:29.963Z,2.16
2023-12-03T19:26:58.519Z,2.18
2023-12-03T19:29:26.325Z,1.69
2023-12-03T19:31:56.358Z,1.80
2023-12-03T19:34:24.260Z,2.14
2023-12-03T19:36:55.578Z,2.16
2023-12-03T19:39:23.394Z,1.93
2023-12-03T19:41:56.631Z,2.05
2023-12-03T19:44:24.435Z,2.15
2023-12-03T19:46:54.183Z,2.35
2023-12-03T19:49:23.447Z,2.13
2023-12-03T19:51:51.393Z,2.31
2023-12-03T19:54:19.202Z,2.35
2023-12-03T19:56:47.092Z,2.13
2023-12-03T19:59:15.036Z,2.03
2023-12-03T20:01:42.896Z,1.75
2023-12-03T20:04:10.724Z,1.45
2023-12-03T20:06:40.183Z,1.47
2023-12-03T20:09:08.325Z,1.35
2023-12-03T20:11:36.485Z,0.95
2023-12-03T20:14:04.575Z,0.66
2023-12-03T20:16:35.324Z,0.42
2023-12-03T20:19:05.174Z,0.62
2023-12-03T20:21:33.150Z,0.78
2023-12-03T20:24:02.383Z,0.55
2023-12-03T20:26:30.202Z,0.63
2023-12-03T20:38:10.318Z,0.64
2023-12-03T20:56:03.109Z,0.52
2023-12-03T22:31:15.461Z,0.54
2023-12-03T23:59:54.161Z,-0.17
